createdAt,value
2018-02-04T00:01:29.410Z,7.77
2018-02-04T00:04:00.197Z,7.50
2018-02-04T00:06:30.980Z,7.10
2018-02-04T00:09:01.772Z,7.80
2018-02-04T00:11:32.521Z,7.20
2018-02-04T00:14:03.277Z,7.43
2018-02-04T00:16:34.053Z,7.23
2018-02-04T00:19:04.845Z,8.63
2018-02-04T00:21:35.604Z,8.00
2018-02-04T00:24:06.344Z,8.23
2018-02-04T00:26:37.088Z,7.17
2018-02-04T00:29:07.872Z,7.93
2018-02-04T00:31:38.619Z,9.50
2018-02-04T00:34:09.373Z,7.83
2018-02-04T00:36:40.125Z,7.87
2018-02-04T00:39:10.893Z,8.17
2018-02-04T00:41:41.657Z,8.07
2018-02-04T00:44:12.409Z,8.10
2018-02-04T00:46:43.245Z,7.97
2018-02-04T00:49:13.996Z,7.37
2018-02-04T00:51:44.732Z,8.53
2018-02-04T00:54:15.464Z,6.90
2018-02-04T00:56:46.238Z,7.73
2018-02-04T00:59:17.031Z,8.50
2018-02-04T01:01:47.800Z,9.07
2018-02-04T01:04:18.547Z,8.03
2018-02-04T01:06:49.341Z,8.10
2018-02-04T01:09:20.092Z,7.60
2018-02-04T01:11:50.862Z,8.90
2018-02-04T01:14:21.637Z,9.03
2018-02-04T01:16:52.403Z,7.40
2018-02-04T01:19:23.224Z,8.30
2018-02-04T01:21:53.969Z,7.57
2018-02-04T01:24:24.708Z,7.70
2018-02-04T01:26:55.473Z,8.80
2018-02-04T01:29:26.232Z,8.07
2018-02-04T01:31:56.996Z,9.23
2018-02-04T01:34:27.740Z,8.47
2018-02-04T01:36:58.544Z,7.97
2018-02-04T01:39:29.281Z,7.33
2018-02-04T01:42:00.078Z,7.93
2018-02-04T01:44:30.817Z,8.87
2018-02-04T01:47:01.573Z,8.50
2018-02-04T01:49:32.317Z,8.80
2018-02-04T01:52:03.083Z,8.30
2018-02-04T01:54:33.844Z,7.83
2018-02-04T01:57:04.623Z,9.20
2018-02-04T01:59:35.368Z,8.13
2018-02-04T02:02:06.096Z,7.60
2018-02-04T02:04:36.849Z,9.03
2018-02-04T02:07:07.637Z,9.63
2018-02-04T02:09:38.391Z,9.17
2018-02-04T02:12:09.157Z,7.70
2018-02-04T02:14:39.912Z,8.77
2018-02-04T02:17:10.709Z,9.67
2018-02-04T02:19:48.365Z,9.00
2018-02-04T02:22:19.179Z,7.97
2018-02-04T02:24:49.957Z,8.80
2018-02-04T02:27:20.744Z,7.50
2018-02-04T02:29:51.573Z,9.03
2018-02-04T02:32:22.372Z,8.00
2018-02-04T02:34:53.133Z,8.37
2018-02-04T02:37:23.990Z,9.73
2018-02-04T02:39:54.744Z,7.67
2018-02-04T02:42:25.517Z,8.03
2018-02-04T02:44:56.263Z,7.67
2018-02-04T02:47:27.153Z,8.03
2018-02-04T02:49:57.977Z,8.27
2018-02-04T02:52:28.767Z,8.53
2018-02-04T02:54:59.553Z,9.30
2018-02-04T02:57:30.343Z,7.73
2018-02-04T03:00:01.122Z,8.00
2018-02-04T03:02:31.897Z,8.60
2018-02-04T03:05:02.673Z,7.90
2018-02-04T03:07:34.543Z,8.13
2018-02-04T03:10:05.360Z,8.40
2018-02-04T03:12:36.146Z,8.43
2018-02-04T03:15:06.893Z,7.53
2018-02-04T03:17:37.670Z,8.00
2018-02-04T03:20:08.450Z,6.87
2018-02-04T03:22:39.232Z,7.70
2018-02-04T03:25:09.995Z,7.70
2018-02-04T03:27:40.824Z,6.90
2018-02-04T03:30:11.605Z,7.17
2018-02-04T03:32:42.392Z,7.63
2018-02-04T03:35:13.152Z,7.13
2018-02-04T03:37:43.925Z,7.27
2018-02-04T03:40:14.668Z,7.73
2018-02-04T03:42:45.451Z,7.60
2018-02-04T03:45:16.226Z,8.73
2018-02-04T03:47:47.006Z,7.50
2018-02-04T03:50:17.752Z,8.20
2018-02-04T03:52:48.538Z,6.83
2018-02-04T03:55:19.293Z,8.27
2018-02-04T03:57:50.077Z,5.93
2018-02-04T04:00:20.851Z,7.70
2018-02-04T04:02:51.632Z,7.20
2018-02-04T04:05:22.404Z,6.33
2018-02-04T04:07:53.166Z,7.60
2018-02-04T04:10:23.915Z,7.30
2018-02-04T04:12:54.708Z,6.60
2018-02-04T04:15:25.453Z,7.90
2018-02-04T04:17:56.217Z,7.23
2018-02-04T04:20:26.953Z,7.53
2018-02-04T04:22:57.712Z,7.77
2018-02-04T04:25:28.456Z,7.93
2018-02-04T04:27:59.381Z,8.00
2018-02-04T04:30:30.165Z,7.50
2018-02-04T04:33:00.925Z,6.90
2018-02-04T04:35:31.676Z,7.83
2018-02-04T04:38:02.419Z,8.33
2018-02-04T04:40:33.159Z,6.90
2018-02-04T04:43:03.924Z,6.13
2018-02-04T04:45:34.658Z,6.03
2018-02-04T04:48:05.425Z,6.80
2018-02-04T04:50:36.186Z,6.97
2018-02-04T04:53:06.940Z,6.37
2018-02-04T04:55:37.753Z,6.93
2018-02-04T04:58:08.520Z,8.40
2018-02-04T05:00:39.278Z,6.43
2018-02-04T05:03:10.063Z,6.50
2018-02-04T05:05:40.831Z,7.60
2018-02-04T05:08:11.626Z,8.10
2018-02-04T05:10:42.377Z,7.00
2018-02-04T05:13:13.144Z,7.47
2018-02-04T05:15:43.912Z,7.83
2018-02-04T05:18:14.747Z,7.33
2018-02-04T05:20:45.508Z,7.30
2018-02-04T05:23:16.271Z,6.67
2018-02-04T05:25:47.012Z,7.10
2018-02-04T05:28:17.785Z,7.70
2018-02-04T05:30:48.560Z,7.17
2018-02-04T05:33:19.337Z,7.83
2018-02-04T05:35:50.106Z,6.33
2018-02-04T05:38:20.874Z,7.50
2018-02-04T05:40:51.644Z,6.40
2018-02-04T05:43:22.408Z,7.07
2018-02-04T05:45:53.232Z,6.03
2018-02-04T05:48:24.029Z,7.23
2018-02-04T05:50:54.808Z,7.80
2018-02-04T05:53:25.616Z,7.00
2018-02-04T05:55:56.411Z,7.10
2018-02-04T05:58:27.193Z,7.90
2018-02-04T06:00:57.953Z,8.03
2018-02-04T06:03:28.725Z,7.80
2018-02-04T06:05:59.480Z,8.43
2018-02-04T06:08:30.258Z,7.80
2018-02-04T06:11:01.072Z,7.67
2018-02-04T06:13:31.850Z,8.33
2018-02-04T06:16:02.593Z,6.43
2018-02-04T06:18:33.336Z,9.00
2018-02-04T06:21:04.107Z,9.50
2018-02-04T06:23:34.898Z,7.13
2018-02-04T06:26:05.660Z,8.17
2018-02-04T06:28:36.437Z,9.80
2018-02-04T06:31:07.184Z,9.13
2018-02-04T06:33:38.021Z,9.93
2018-02-04T06:36:08.771Z,12.73
2018-02-04T06:38:39.520Z,12.00
2018-02-04T06:41:10.277Z,12.20
2018-02-04T06:43:41.052Z,11.37
2018-02-04T06:48:49.353Z,10.45
2018-02-04T06:51:20.091Z,12.70
2018-02-04T06:53:50.982Z,11.33
2018-02-04T06:56:21.746Z,10.57
2018-02-04T06:58:52.520Z,11.30
2018-02-04T07:01:23.287Z,11.40
2018-02-04T07:03:54.135Z,9.60
2018-02-04T07:06:24.906Z,10.83
2018-02-04T07:08:55.676Z,8.67
2018-02-04T07:11:26.430Z,10.90
2018-02-04T07:13:57.310Z,11.10
2018-02-04T07:16:28.084Z,10.17
2018-02-04T07:18:58.866Z,10.40
2018-02-04T07:21:29.699Z,9.30
2018-02-04T07:24:00.478Z,10.77
2018-02-04T07:26:31.216Z,12.13
2018-02-04T07:29:09.013Z,11.53
2018-02-04T07:31:39.756Z,10.73
2018-02-04T07:34:10.532Z,9.63
2018-02-04T07:36:41.281Z,9.90
2018-02-04T07:39:12.064Z,10.30
2018-02-04T07:41:42.843Z,10.07
2018-02-04T07:44:14.345Z,9.97
2018-02-04T07:46:45.136Z,10.68
2018-02-04T07:49:15.917Z,10.93
2018-02-04T07:51:46.664Z,9.40
2018-02-04T07:54:17.445Z,10.47
2018-02-04T07:56:48.224Z,10.50
2018-02-04T07:59:19.047Z,10.80
2018-02-04T08:01:49.865Z,9.77
2018-02-04T08:04:20.656Z,11.57
2018-02-04T08:06:51.420Z,10.50
2018-02-04T08:09:22.217Z,10.23
2018-02-04T08:11:52.979Z,10.43
2018-02-04T08:14:23.837Z,10.60
2018-02-04T08:16:54.618Z,9.77
2018-02-04T08:19:25.407Z,9.90
2018-02-04T08:21:56.194Z,10.67
2018-02-04T08:24:27.001Z,11.07
2018-02-04T08:26:57.801Z,12.30
2018-02-04T08:29:28.666Z,11.30
2018-02-04T08:31:59.474Z,11.17
2018-02-04T08:34:30.260Z,12.40
2018-02-04T08:37:01.043Z,11.60
2018-02-04T08:39:31.862Z,10.00
2018-02-04T08:57:20.395Z,11.02
2018-02-04T08:59:51.155Z,11.10
2018-02-04T09:02:21.945Z,9.97
2018-02-04T09:04:52.721Z,11.87
2018-02-04T09:07:23.500Z,12.40
2018-02-04T09:09:54.252Z,10.77
2018-02-04T09:12:25.069Z,11.80
2018-02-04T09:14:55.808Z,12.13
2018-02-04T09:17:26.576Z,10.97
2018-02-04T09:19:57.312Z,11.83
2018-02-04T09:22:28.210Z,13.00
2018-02-04T09:24:59.020Z,10.83
2018-02-04T09:27:29.884Z,11.97
2018-02-04T09:30:00.661Z,11.57
2018-02-04T09:32:31.546Z,12.27
2018-02-04T09:35:02.351Z,11.00
2018-02-04T09:37:33.239Z,11.97
2018-02-04T09:40:05.112Z,12.10
2018-02-04T09:42:36.908Z,11.00
2018-02-04T09:45:07.672Z,12.80
2018-02-04T09:47:38.592Z,12.07
2018-02-04T09:50:09.376Z,11.20
2018-02-04T09:52:40.151Z,14.00
2018-02-04T09:55:10.961Z,12.33
2018-02-04T09:57:41.750Z,14.50
2018-02-04T10:00:12.495Z,14.77
2018-02-04T10:02:43.325Z,13.40
2018-02-04T10:05:14.088Z,15.07
2018-02-04T10:07:44.844Z,14.30
2018-02-04T10:10:15.574Z,12.70
2018-02-04T10:12:46.347Z,14.00
2018-02-04T10:15:17.097Z,13.10
2018-02-04T10:17:47.872Z,13.00
2018-02-04T10:20:18.616Z,10.47
2018-02-04T10:22:49.367Z,11.30
2018-02-04T10:25:20.127Z,10.80
2018-02-04T10:27:50.877Z,12.10
2018-02-04T10:30:21.644Z,11.10
2018-02-04T10:32:52.396Z,9.83
2018-02-04T10:35:23.149Z,10.30
2018-02-04T10:37:53.887Z,11.30
2018-02-04T10:40:24.656Z,10.97
2018-02-04T10:42:55.438Z,10.63
2018-02-04T10:45:26.200Z,10.70
2018-02-04T10:47:56.962Z,10.67
2018-02-04T10:50:27.724Z,9.80
2018-02-04T10:52:58.500Z,10.10
2018-02-04T10:55:29.253Z,10.00
2018-02-04T10:58:00.027Z,9.73
2018-02-04T11:00:30.804Z,9.87
2018-02-04T11:03:01.560Z,10.03
2018-02-04T11:05:32.308Z,10.03
2018-02-04T11:08:03.081Z,10.07
2018-02-04T11:10:33.872Z,12.00
2018-02-04T11:13:04.669Z,10.77
2018-02-04T11:15:35.460Z,10.37
2018-02-04T11:18:06.244Z,11.93
2018-02-04T11:20:37.055Z,20.90
2018-02-04T11:23:07.848Z,11.60
2018-02-04T11:25:39.652Z,11.93
2018-02-04T11:28:10.417Z,12.65
2018-02-04T11:30:41.198Z,11.10
2018-02-04T11:33:11.968Z,12.60
2018-02-04T11:35:42.736Z,12.00
2018-02-04T11:38:13.520Z,11.60
2018-02-04T11:40:44.296Z,11.43
2018-02-04T11:43:15.044Z,12.53
2018-02-04T11:45:45.832Z,12.07
2018-02-04T11:48:16.605Z,13.43
2018-02-04T11:50:47.424Z,13.00
2018-02-04T11:53:18.273Z,11.93
2018-02-04T11:55:49.068Z,13.40
2018-02-04T11:58:19.830Z,13.03
2018-02-04T12:00:50.640Z,10.93
2018-02-04T12:03:21.429Z,12.50
2018-02-04T12:05:52.224Z,12.60
2018-02-04T12:08:22.999Z,12.10
2018-02-04T12:10:53.771Z,11.10
2018-02-04T12:13:26.513Z,9.73
2018-02-04T12:15:57.280Z,8.93
2018-02-04T12:18:28.021Z,10.20
2018-02-04T12:20:58.784Z,9.60
2018-02-04T12:23:29.558Z,8.80
2018-02-04T12:26:00.335Z,9.00
2018-02-04T12:28:31.096Z,8.10
2018-02-04T12:31:01.857Z,7.83
2018-02-04T12:33:32.613Z,8.43
2018-02-04T12:36:03.383Z,8.40
2018-02-04T12:38:34.120Z,8.70
2018-02-04T12:41:04.937Z,7.10
2018-02-04T12:43:35.705Z,10.67
2018-02-04T12:46:06.470Z,10.50
2018-02-04T12:48:37.216Z,8.03
2018-02-04T12:51:08.013Z,9.40
2018-02-04T12:53:38.809Z,10.07
2018-02-04T12:56:09.664Z,9.10
2018-02-04T12:58:40.399Z,8.93
2018-02-04T13:04:09.309Z,10.00
2018-02-04T13:06:40.130Z,9.70
2018-02-04T13:09:12.932Z,9.70
2018-02-04T13:11:43.699Z,8.98
2018-02-04T13:14:14.430Z,9.80
2018-02-04T13:16:45.232Z,8.87
2018-02-04T13:19:16.007Z,8.80
2018-02-04T13:21:46.833Z,9.10
2018-02-04T13:24:17.584Z,11.57
2018-02-04T13:26:48.358Z,10.73
2018-02-04T13:29:19.119Z,10.10
2018-02-04T13:31:49.884Z,10.50
2018-02-04T13:34:20.725Z,10.73
2018-02-04T13:36:51.476Z,9.33
2018-02-04T13:39:22.256Z,9.63
2018-02-04T13:41:53.027Z,11.30
2018-02-04T13:44:23.785Z,7.47
2018-02-04T13:46:54.556Z,7.63
2018-02-04T13:49:25.314Z,8.30
2018-02-04T13:51:56.096Z,6.73
2018-02-04T13:54:27.148Z,6.80
2018-02-04T13:56:57.976Z,7.87
2018-02-04T13:59:28.740Z,7.93
2018-02-04T14:01:59.489Z,7.70
2018-02-04T14:04:30.244Z,6.97
2018-02-04T14:07:01.121Z,6.10
2018-02-04T14:09:31.869Z,8.00
2018-02-04T14:12:02.667Z,7.13
2018-02-04T14:14:33.523Z,6.53
2018-02-04T14:17:04.363Z,6.27
2018-02-04T14:19:35.113Z,5.70
2018-02-04T14:22:05.893Z,6.40
2018-02-04T14:24:36.652Z,5.50
2018-02-04T14:27:07.440Z,5.30
2018-02-04T14:29:38.195Z,4.90
2018-02-04T14:32:09.044Z,4.60
2018-02-04T14:34:39.793Z,4.00
2018-02-04T14:37:10.581Z,3.20
2018-02-04T14:39:43.333Z,3.70
2018-02-04T14:42:14.144Z,4.43
2018-02-04T14:44:44.928Z,4.00
2018-02-04T14:47:15.689Z,5.47
2018-02-04T14:49:46.438Z,5.30
2018-02-04T14:52:17.240Z,4.67
2018-02-04T14:54:47.974Z,4.53
2018-02-04T14:57:18.732Z,5.10
2018-02-04T14:59:49.500Z,5.47
2018-02-04T15:02:20.261Z,5.10
2018-02-04T15:04:51.022Z,5.93
2018-02-04T15:07:21.816Z,4.40
2018-02-04T15:09:52.597Z,5.47
2018-02-04T15:12:23.416Z,4.70
2018-02-04T15:14:54.184Z,5.40
2018-02-04T15:17:24.933Z,6.20
2018-02-04T15:19:55.717Z,7.93
2018-02-04T15:22:26.488Z,6.40
2018-02-04T15:24:57.267Z,6.50
2018-02-04T15:27:28.044Z,6.20
2018-02-04T15:29:58.803Z,17.00
2018-02-04T15:32:29.576Z,7.70
2018-02-04T15:35:01.352Z,7.40
2018-02-04T15:37:32.105Z,5.53
2018-02-04T15:40:02.946Z,5.33
2018-02-04T15:42:33.704Z,5.60
2018-02-04T15:45:04.470Z,5.50
2018-02-04T15:47:35.253Z,4.93
2018-02-04T15:50:06.159Z,6.80
2018-02-04T15:52:36.891Z,5.50
2018-02-04T15:55:08.692Z,5.07
2018-02-04T15:57:40.515Z,5.75
2018-02-04T16:00:11.281Z,5.28
2018-02-04T16:02:42.045Z,4.90
2018-02-04T16:05:13.017Z,5.33
2018-02-04T16:07:43.841Z,6.43
2018-02-04T16:10:14.617Z,6.43
2018-02-04T16:12:45.342Z,7.40
2018-02-04T16:15:16.124Z,7.90
2018-02-04T16:17:46.975Z,7.30
2018-02-04T16:20:17.731Z,11.00
2018-02-04T16:22:55.547Z,11.37
2018-02-04T16:25:26.355Z,11.27
2018-02-04T16:27:57.092Z,12.30
2018-02-04T16:30:27.853Z,11.83
2018-02-04T16:32:58.651Z,10.80
2018-02-04T16:50:54.806Z,9.07
2018-02-04T16:53:25.570Z,7.27
2018-02-04T16:55:56.393Z,9.00
2018-02-04T16:58:27.149Z,8.87
2018-02-04T17:00:57.900Z,9.60
2018-02-04T17:03:28.650Z,9.80
2018-02-04T17:06:00.620Z,9.00
2018-02-04T17:08:31.409Z,9.10
2018-02-04T17:11:02.272Z,11.23
2018-02-04T17:13:32.999Z,10.27
2018-02-04T17:16:03.804Z,8.30
2018-02-04T17:18:34.602Z,12.47
2018-02-04T17:21:05.429Z,10.50
2018-02-04T17:23:36.241Z,11.63
2018-02-04T17:26:14.142Z,10.67
2018-02-04T17:28:44.915Z,10.82
2018-02-04T17:31:15.689Z,11.60
2018-02-04T17:33:46.452Z,12.23
2018-02-04T17:36:19.250Z,21.67
2018-02-04T17:38:50.045Z,19.77
2018-02-04T17:41:20.837Z,18.30
2018-02-04T17:43:51.621Z,19.60
2018-02-04T17:46:22.428Z,14.60
2018-02-04T17:48:53.206Z,13.23
2018-02-04T17:51:24.003Z,15.33
2018-02-04T17:53:56.789Z,13.27
2018-02-04T17:56:27.666Z,12.93
2018-02-04T17:58:58.450Z,13.90
2018-02-04T18:01:29.252Z,12.53
2018-02-04T18:04:00.088Z,11.10
2018-02-04T18:06:30.876Z,12.43
2018-02-04T18:09:01.618Z,11.40
2018-02-04T18:11:32.431Z,13.90
2018-02-04T18:14:04.198Z,12.93
2018-02-04T18:16:35.020Z,14.68
2018-02-04T18:19:05.773Z,16.13
2018-02-04T18:21:36.579Z,14.87
2018-02-04T18:24:07.349Z,13.00
2018-02-04T18:26:38.229Z,13.00
2018-02-04T18:29:09.028Z,13.00
2018-02-04T18:31:39.868Z,17.20
2018-02-04T18:34:10.660Z,13.30
2018-02-04T18:36:41.479Z,14.57
2018-02-04T18:39:12.236Z,16.20
2018-02-04T18:41:43.092Z,13.83
2018-02-04T18:44:13.867Z,14.20
2018-02-04T18:46:44.724Z,16.37
2018-02-04T18:49:15.524Z,16.67
2018-02-04T18:51:46.329Z,17.10
2018-02-04T18:54:17.124Z,18.03
2018-02-04T18:56:47.904Z,23.93
2018-02-04T18:59:18.668Z,16.73
2018-02-04T19:01:49.432Z,16.77
2018-02-04T19:04:20.222Z,20.30
2018-02-04T19:06:51.043Z,16.07
2018-02-04T19:09:22.864Z,48.87
2018-02-04T19:11:53.742Z,25.98
2018-02-04T19:14:24.540Z,26.07
2018-02-04T19:16:55.310Z,23.40
2018-02-04T19:19:26.072Z,37.63
2018-02-04T19:22:03.876Z,44.03
2018-02-04T19:24:34.684Z,31.35
2018-02-04T19:27:05.423Z,21.33
2018-02-04T19:29:36.240Z,18.23
2018-02-04T19:32:07.025Z,17.23
2018-02-04T19:34:41.369Z,15.83
2018-02-04T19:37:12.175Z,15.18
2018-02-04T19:39:42.943Z,15.53
2018-02-04T19:42:13.730Z,17.90
2018-02-04T19:44:44.516Z,17.80
2018-02-04T19:47:15.313Z,16.27
2018-02-04T19:49:46.096Z,16.67
2018-02-04T19:52:17.963Z,17.93
2018-02-04T19:54:48.740Z,16.30
2018-02-04T19:57:19.556Z,18.50
2018-02-04T19:59:50.320Z,17.30
2018-02-04T20:02:21.127Z,17.33
2018-02-04T20:04:51.876Z,15.40
2018-02-04T20:07:22.700Z,17.40
2018-02-04T20:09:53.571Z,13.73
2018-02-04T20:12:24.355Z,16.60
2018-02-04T20:14:58.356Z,15.60
2018-02-04T20:17:29.166Z,19.95
2018-02-04T20:19:59.924Z,15.97
2018-02-04T20:22:30.697Z,15.17
2018-02-04T20:25:01.444Z,16.20
2018-02-04T20:27:32.244Z,14.70
2018-02-04T20:30:03.108Z,16.97
2018-02-04T20:32:53.162Z,14.33
2018-02-04T20:35:23.962Z,15.38
2018-02-04T20:37:54.815Z,14.90
2018-02-04T20:40:25.623Z,18.20
2018-02-04T20:43:14.912Z,21.97
2018-02-04T20:45:45.692Z,20.85
2018-02-04T20:48:23.305Z,17.40
2018-02-04T20:50:54.077Z,15.95
2018-02-04T20:53:24.882Z,18.07
2018-02-04T20:55:55.703Z,17.00
2018-02-04T20:58:26.566Z,16.70
2018-02-04T21:00:57.443Z,15.90
2018-02-04T21:03:28.217Z,14.50
2018-02-04T21:05:59.051Z,14.03
2018-02-04T21:08:29.868Z,16.20
2018-02-04T21:11:00.666Z,16.17
2018-02-04T21:13:33.472Z,15.20
2018-02-04T21:16:04.244Z,13.88
2018-02-04T21:18:35.057Z,14.30
2018-02-04T21:21:05.793Z,14.70
2018-02-04T21:23:36.572Z,12.47
2018-02-04T21:26:07.361Z,14.17
2018-02-04T21:28:38.195Z,13.53
2018-02-04T21:31:09.013Z,12.00
2018-02-04T21:33:39.833Z,12.57
2018-02-04T21:36:10.749Z,13.80
2018-02-04T21:38:41.512Z,13.27
2018-02-04T21:41:12.319Z,10.53
2018-02-04T21:43:44.105Z,12.27
2018-02-04T21:46:15.000Z,12.25
2018-02-04T21:48:45.771Z,12.03
2018-02-04T21:51:16.580Z,13.03
2018-02-04T21:53:48.387Z,11.30
2018-02-04T21:56:19.277Z,11.85
2018-02-04T21:58:50.071Z,11.93
2018-02-04T22:01:20.884Z,12.20
2018-02-04T22:03:51.777Z,12.53
2018-02-04T22:06:22.528Z,12.73
2018-02-04T22:08:53.336Z,12.10
2018-02-04T22:11:24.125Z,13.07
2018-02-04T22:13:54.943Z,12.73
2018-02-04T22:16:25.764Z,14.37
2018-02-04T22:19:10.072Z,13.03
2018-02-04T22:21:40.871Z,14.85
2018-02-04T22:24:11.673Z,13.80
2018-02-04T22:26:42.476Z,14.90
2018-02-04T22:29:13.290Z,13.73
2018-02-04T22:31:44.070Z,14.00
2018-02-04T22:34:14.885Z,13.77
2018-02-04T22:36:45.651Z,14.07
2018-02-04T22:39:16.440Z,14.13
2018-02-04T22:41:47.180Z,15.40
2018-02-04T22:44:17.939Z,14.73
2018-02-04T22:46:48.708Z,14.80
2018-02-04T22:49:19.493Z,12.77
2018-02-04T22:51:50.305Z,13.63
2018-02-04T22:54:21.124Z,15.03
2018-02-04T22:56:51.894Z,13.17
2018-02-04T22:59:22.749Z,12.33
2018-02-04T23:01:53.540Z,12.83
2018-02-04T23:04:24.308Z,12.90
2018-02-04T23:06:55.065Z,14.03
2018-02-04T23:09:25.956Z,13.87
2018-02-04T23:11:56.693Z,15.07
2018-02-04T23:14:27.452Z,13.73
2018-02-04T23:16:58.211Z,14.20
2018-02-04T23:19:29.005Z,14.37
2018-02-04T23:21:59.744Z,14.27
2018-02-04T23:24:30.592Z,13.87
2018-02-04T23:27:01.368Z,12.47
2018-02-04T23:29:32.144Z,14.60
2018-02-04T23:32:02.901Z,12.87
2018-02-04T23:34:33.680Z,14.03
2018-02-04T23:37:04.435Z,14.30
2018-02-04T23:39:35.205Z,14.10
2018-02-04T23:42:05.967Z,15.37
2018-02-04T23:44:36.708Z,14.57
2018-02-04T23:47:07.432Z,12.70
2018-02-04T23:49:38.180Z,13.80
2018-02-04T23:52:08.936Z,14.60
2018-02-04T23:54:39.696Z,14.53
2018-02-04T23:57:10.436Z,13.13
2018-02-04T23:59:41.223Z,14.77
